sensor_id;sensor_type;location;lat;lon;timestamp;temperature;humidity
15133;DHT22;7667;51.232;17.110;2023-03-22T00:00:09;8.10;99.90
15133;DHT22;7667;51.232;17.110;2023-03-22T00:02:41;8.10;99.90
15133;DHT22;7667;51.232;17.110;2023-03-22T00:05:09;8.10;99.90
15133;DHT22;7667;51.232;17.110;2023-03-22T00:07:36;8.10;99.90
15133;DHT22;7667;51.232;17.110;2023-03-22T00:10:07;8.10;99.90
15133;DHT22;7667;51.232;17.110;2023-03-22T00:12:35;8.10;99.90
15133;DHT22;7667;51.232;17.110;2023-03-22T00:15:02;8.10;99.90
15133;DHT22;7667;51.232;17.110;2023-03-22T00:17:30;8.10;99.90
15133;DHT22;7667;51.232;17.110;2023-03-22T00:19:58;8.10;99.90
15133;DHT22;7667;51.232;17.110;2023-03-22T00:22:26;8.10;99.90
15133;DHT22;7667;51.232;17.110;2023-03-22T00:24:53;8.00;99.90
15133;DHT22;7667;51.232;17.110;2023-03-22T00:27:21;8.00;99.90
15133;DHT22;7667;51.232;17.110;2023-03-22T00:29:51;7.90;99.90
15133;DHT22;7667;51.232;17.110;2023-03-22T00:32:18;7.90;99.90
15133;DHT22;7667;51.232;17.110;2023-03-22T00:34:46;7.90;99.90
15133;DHT22;7667;51.232;17.110;2023-03-22T00:37:14;7.90;99.90
15133;DHT22;7667;51.232;17.110;2023-03-22T00:39:44;7.90;99.90
15133;DHT22;7667;51.232;17.110;2023-03-22T00:42:12;7.90;99.90
15133;DHT22;7667;51.232;17.110;2023-03-22T00:44:39;7.90;99.90
15133;DHT22;7667;51.232;17.110;2023-03-22T00:47:07;7.90;99.90
15133;DHT22;7667;51.232;17.110;2023-03-22T00:49:34;7.90;99.90
15133;DHT22;7667;51.232;17.110;2023-03-22T00:52:03;8.00;99.90
15133;DHT22;7667;51.232;17.110;2023-03-22T00:54:31;8.00;99.90
15133;DHT22;7667;51.232;17.110;2023-03-22T00:56:58;7.90;99.90
15133;DHT22;7667;51.232;17.110;2023-03-22T00:59:26;8.00;99.90
15133;DHT22;7667;51.232;17.110;2023-03-22T01:01:54;8.00;99.90
15133;DHT22;7667;51.232;17.110;2023-03-22T01:04:24;8.00;99.90
15133;DHT22;7667;51.232;17.110;2023-03-22T01:06:52;8.00;99.90
15133;DHT22;7667;51.232;17.110;2023-03-22T01:09:25;8.00;99.90
15133;DHT22;7667;51.232;17.110;2023-03-22T01:12:00;8.00;99.90
15133;DHT22;7667;51.232;17.110;2023-03-22T01:14:28;7.90;99.90
15133;DHT22;7667;51.232;17.110;2023-03-22T01:16:57;7.90;99.90
15133;DHT22;7667;51.232;17.110;2023-03-22T01:19:25;8.00;99.90
15133;DHT22;7667;51.232;17.110;2023-03-22T01:21:56;8.00;99.90
15133;DHT22;7667;51.232;17.110;2023-03-22T01:24:23;8.00;99.90
15133;DHT22;7667;51.232;17.110;2023-03-22T01:26:51;8.00;99.90
15133;DHT22;7667;51.232;17.110;2023-03-22T01:29:18;8.00;99.90
15133;DHT22;7667;51.232;17.110;2023-03-22T01:31:46;8.00;99.90
15133;DHT22;7667;51.232;17.110;2023-03-22T01:34:14;8.00;99.90
15133;DHT22;7667;51.232;17.110;2023-03-22T01:36:41;8.00;99.90
15133;DHT22;7667;51.232;17.110;2023-03-22T01:39:09;8.10;99.90
15133;DHT22;7667;51.232;17.110;2023-03-22T01:41:37;8.00;99.90
15133;DHT22;7667;51.232;17.110;2023-03-22T01:46:44;8.10;99.90
15133;DHT22;7667;51.232;17.110;2023-03-22T01:49:33;8.10;99.90
15133;DHT22;7667;51.232;17.110;2023-03-22T01:52:12;8.10;99.90
15133;DHT22;7667;51.232;17.110;2023-03-22T01:54:46;8.10;99.90
15133;DHT22;7667;51.232;17.110;2023-03-22T01:57:14;8.00;99.90
15133;DHT22;7667;51.232;17.110;2023-03-22T01:59:42;7.90;99.90
15133;DHT22;7667;51.232;17.110;2023-03-22T02:02:12;7.90;99.90
15133;DHT22;7667;51.232;17.110;2023-03-22T02:04:47;7.90;99.90
15133;DHT22;7667;51.232;17.110;2023-03-22T02:07:24;7.80;99.90
15133;DHT22;7667;51.232;17.110;2023-03-22T02:09:54;7.80;99.90
15133;DHT22;7667;51.232;17.110;2023-03-22T02:15:24;7.70;99.90
15133;DHT22;7667;51.232;17.110;2023-03-22T02:18:15;7.70;99.90
15133;DHT22;7667;51.232;17.110;2023-03-22T02:24:04;7.70;99.90
15133;DHT22;7667;51.232;17.110;2023-03-22T02:29:49;7.70;99.90
15133;DHT22;7667;51.232;17.110;2023-03-22T02:33:00;7.70;99.90
15133;DHT22;7667;51.232;17.110;2023-03-22T02:44:40;7.60;99.90
15133;DHT22;7667;51.232;17.110;2023-03-22T02:50:28;7.60;99.90
15133;DHT22;7667;51.232;17.110;2023-03-22T02:53:17;7.60;99.90
15133;DHT22;7667;51.232;17.110;2023-03-22T02:58:37;7.60;99.90
15133;DHT22;7667;51.232;17.110;2023-03-22T03:04:09;7.60;99.90
15133;DHT22;7667;51.232;17.110;2023-03-22T03:06:43;7.60;99.90
15133;DHT22;7667;51.232;17.110;2023-03-22T03:09:15;7.60;99.90
15133;DHT22;7667;51.232;17.110;2023-03-22T03:11:49;7.70;99.90
15133;DHT22;7667;51.232;17.110;2023-03-22T03:14:31;7.80;99.90
15133;DHT22;7667;51.232;17.110;2023-03-22T03:20:42;7.90;99.90
15133;DHT22;7667;51.232;17.110;2023-03-22T03:34:55;8.00;99.90
15133;DHT22;7667;51.232;17.110;2023-03-22T03:37:34;8.00;99.90
15133;DHT22;7667;51.232;17.110;2023-03-22T03:40:22;7.90;99.90
15133;DHT22;7667;51.232;17.110;2023-03-22T03:43:02;7.90;99.90
15133;DHT22;7667;51.232;17.110;2023-03-22T03:45:30;7.80;99.90
15133;DHT22;7667;51.232;17.110;2023-03-22T03:48:03;7.70;99.90
15133;DHT22;7667;51.232;17.110;2023-03-22T03:50:33;7.70;99.90
15133;DHT22;7667;51.232;17.110;2023-03-22T03:53:01;7.80;99.90
15133;DHT22;7667;51.232;17.110;2023-03-22T03:55:29;7.80;99.90
15133;DHT22;7667;51.232;17.110;2023-03-22T03:57:58;7.70;99.90
15133;DHT22;7667;51.232;17.110;2023-03-22T04:00:25;7.80;99.90
15133;DHT22;7667;51.232;17.110;2023-03-22T04:02:53;7.90;99.90
15133;DHT22;7667;51.232;17.110;2023-03-22T04:05:20;7.90;99.90
15133;DHT22;7667;51.232;17.110;2023-03-22T04:07:48;8.00;99.90
15133;DHT22;7667;51.232;17.110;2023-03-22T04:10:15;7.90;99.90
15133;DHT22;7667;51.232;17.110;2023-03-22T04:12:43;8.00;99.90
15133;DHT22;7667;51.232;17.110;2023-03-22T04:15:11;8.00;99.90
15133;DHT22;7667;51.232;17.110;2023-03-22T04:17:39;8.00;99.90
15133;DHT22;7667;51.232;17.110;2023-03-22T04:20:08;8.00;99.90
15133;DHT22;7667;51.232;17.110;2023-03-22T04:22:37;8.00;99.90
15133;DHT22;7667;51.232;17.110;2023-03-22T04:25:08;7.80;99.90
15133;DHT22;7667;51.232;17.110;2023-03-22T04:27:39;7.60;99.90
15133;DHT22;7667;51.232;17.110;2023-03-22T04:30:10;7.50;99.90
15133;DHT22;7667;51.232;17.110;2023-03-22T04:32:45;7.40;99.90
15133;DHT22;7667;51.232;17.110;2023-03-22T04:35:14;7.40;99.90
15133;DHT22;7667;51.232;17.110;2023-03-22T04:37:42;7.50;99.90
15133;DHT22;7667;51.232;17.110;2023-03-22T04:40:11;7.40;99.90
15133;DHT22;7667;51.232;17.110;2023-03-22T04:42:43;7.50;99.90
15133;DHT22;7667;51.232;17.110;2023-03-22T04:45:12;7.50;99.90
15133;DHT22;7667;51.232;17.110;2023-03-22T04:47:40;7.50;99.90
15133;DHT22;7667;51.232;17.110;2023-03-22T04:50:08;7.40;99.90
15133;DHT22;7667;51.232;17.110;2023-03-22T04:52:35;7.40;99.90
15133;DHT22;7667;51.232;17.110;2023-03-22T04:55:03;7.40;99.90
15133;DHT22;7667;51.232;17.110;2023-03-22T04:57:31;7.40;99.90
15133;DHT22;7667;51.232;17.110;2023-03-22T05:00:00;7.40;99.90
15133;DHT22;7667;51.232;17.110;2023-03-22T05:02:32;7.30;99.90
15133;DHT22;7667;51.232;17.110;2023-03-22T05:04:59;7.30;99.90
15133;DHT22;7667;51.232;17.110;2023-03-22T05:07:27;7.20;99.90
15133;DHT22;7667;51.232;17.110;2023-03-22T05:09:55;7.20;99.90
15133;DHT22;7667;51.232;17.110;2023-03-22T05:12:22;7.20;99.90
15133;DHT22;7667;51.232;17.110;2023-03-22T05:14:50;7.30;99.90
15133;DHT22;7667;51.232;17.110;2023-03-22T05:17:17;7.40;99.90
15133;DHT22;7667;51.232;17.110;2023-03-22T05:19:45;7.50;99.90
15133;DHT22;7667;51.232;17.110;2023-03-22T05:22:13;7.50;99.90
15133;DHT22;7667;51.232;17.110;2023-03-22T05:24:41;7.50;99.90
15133;DHT22;7667;51.232;17.110;2023-03-22T05:27:08;7.40;99.90
15133;DHT22;7667;51.232;17.110;2023-03-22T05:29:36;7.50;99.90
15133;DHT22;7667;51.232;17.110;2023-03-22T05:32:04;7.50;99.90
15133;DHT22;7667;51.232;17.110;2023-03-22T05:34:32;7.70;99.90
15133;DHT22;7667;51.232;17.110;2023-03-22T05:37:02;7.80;99.90
15133;DHT22;7667;51.232;17.110;2023-03-22T05:39:29;7.60;99.90
15133;DHT22;7667;51.232;17.110;2023-03-22T05:41:57;7.60;99.90
15133;DHT22;7667;51.232;17.110;2023-03-22T05:44:25;7.60;99.90
15133;DHT22;7667;51.232;17.110;2023-03-22T05:46:52;7.60;99.90
15133;DHT22;7667;51.232;17.110;2023-03-22T05:49:20;7.60;99.90
15133;DHT22;7667;51.232;17.110;2023-03-22T05:51:47;7.60;99.90
15133;DHT22;7667;51.232;17.110;2023-03-22T05:54:16;7.80;99.90
15133;DHT22;7667;51.232;17.110;2023-03-22T05:56:44;7.90;99.90
15133;DHT22;7667;51.232;17.110;2023-03-22T05:59:11;7.90;99.90
15133;DHT22;7667;51.232;17.110;2023-03-22T06:01:39;7.80;99.90
15133;DHT22;7667;51.232;17.110;2023-03-22T06:04:07;7.80;99.90
15133;DHT22;7667;51.232;17.110;2023-03-22T06:06:34;8.00;99.90
15133;DHT22;7667;51.232;17.110;2023-03-22T06:09:02;8.00;99.90
15133;DHT22;7667;51.232;17.110;2023-03-22T06:11:43;8.20;99.90
15133;DHT22;7667;51.232;17.110;2023-03-22T06:14:11;8.30;99.90
15133;DHT22;7667;51.232;17.110;2023-03-22T06:16:38;8.50;99.90
15133;DHT22;7667;51.232;17.110;2023-03-22T06:19:07;8.70;99.90
15133;DHT22;7667;51.232;17.110;2023-03-22T06:21:34;8.80;99.90
15133;DHT22;7667;51.232;17.110;2023-03-22T06:24:02;8.90;99.90
15133;DHT22;7667;51.232;17.110;2023-03-22T06:26:29;8.90;99.90
15133;DHT22;7667;51.232;17.110;2023-03-22T06:28:57;9.00;99.90
15133;DHT22;7667;51.232;17.110;2023-03-22T06:31:24;9.00;99.90
15133;DHT22;7667;51.232;17.110;2023-03-22T06:33:52;9.10;99.90
15133;DHT22;7667;51.232;17.110;2023-03-22T06:36:21;9.20;99.90
15133;DHT22;7667;51.232;17.110;2023-03-22T06:38:49;9.30;99.90
15133;DHT22;7667;51.232;17.110;2023-03-22T06:41:16;9.40;99.90
15133;DHT22;7667;51.232;17.110;2023-03-22T06:43:44;9.40;99.90
15133;DHT22;7667;51.232;17.110;2023-03-22T06:46:12;9.30;99.90
15133;DHT22;7667;51.232;17.110;2023-03-22T06:48:40;9.40;99.90
15133;DHT22;7667;51.232;17.110;2023-03-22T06:51:07;9.40;99.90
15133;DHT22;7667;51.232;17.110;2023-03-22T06:53:35;9.50;99.90
15133;DHT22;7667;51.232;17.110;2023-03-22T06:56:03;9.50;99.90
15133;DHT22;7667;51.232;17.110;2023-03-22T06:58:31;9.70;99.90
15133;DHT22;7667;51.232;17.110;2023-03-22T07:00:59;9.90;99.90
15133;DHT22;7667;51.232;17.110;2023-03-22T07:03:26;10.10;99.90
15133;DHT22;7667;51.232;17.110;2023-03-22T07:06:01;10.10;99.90
15133;DHT22;7667;51.232;17.110;2023-03-22T07:08:30;10.20;99.90
15133;DHT22;7667;51.232;17.110;2023-03-22T07:10:58;10.20;99.90
15133;DHT22;7667;51.232;17.110;2023-03-22T07:13:26;10.30;99.90
15133;DHT22;7667;51.232;17.110;2023-03-22T07:15:58;10.30;99.90
15133;DHT22;7667;51.232;17.110;2023-03-22T07:18:28;10.50;99.90
15133;DHT22;7667;51.232;17.110;2023-03-22T07:20:56;10.50;99.90
15133;DHT22;7667;51.232;17.110;2023-03-22T07:23:24;10.70;99.90
15133;DHT22;7667;51.232;17.110;2023-03-22T07:25:52;10.70;99.90
15133;DHT22;7667;51.232;17.110;2023-03-22T07:28:21;10.70;99.90
15133;DHT22;7667;51.232;17.110;2023-03-22T07:30:59;10.70;99.90
15133;DHT22;7667;51.232;17.110;2023-03-22T07:33:27;10.80;99.90
15133;DHT22;7667;51.232;17.110;2023-03-22T07:35:55;10.70;99.90
15133;DHT22;7667;51.232;17.110;2023-03-22T07:38:23;10.70;99.90
15133;DHT22;7667;51.232;17.110;2023-03-22T07:40:51;10.60;99.90
15133;DHT22;7667;51.232;17.110;2023-03-22T07:43:22;10.70;99.90
15133;DHT22;7667;51.232;17.110;2023-03-22T07:45:51;10.70;99.90
15133;DHT22;7667;51.232;17.110;2023-03-22T07:48:20;10.70;99.90
15133;DHT22;7667;51.232;17.110;2023-03-22T07:50:54;10.90;99.90
15133;DHT22;7667;51.232;17.110;2023-03-22T07:53:22;11.10;99.90
15133;DHT22;7667;51.232;17.110;2023-03-22T07:55:50;11.30;99.90
15133;DHT22;7667;51.232;17.110;2023-03-22T07:58:18;11.50;99.90
15133;DHT22;7667;51.232;17.110;2023-03-22T08:00:47;11.70;99.90
15133;DHT22;7667;51.232;17.110;2023-03-22T08:03:16;11.90;99.90
15133;DHT22;7667;51.232;17.110;2023-03-22T08:05:43;11.90;99.90
15133;DHT22;7667;51.232;17.110;2023-03-22T08:08:11;12.10;99.90
15133;DHT22;7667;51.232;17.110;2023-03-22T08:10:39;12.10;99.90
15133;DHT22;7667;51.232;17.110;2023-03-22T08:13:07;12.30;99.90
15133;DHT22;7667;51.232;17.110;2023-03-22T08:15:35;12.40;99.90
15133;DHT22;7667;51.232;17.110;2023-03-22T08:18:04;12.60;99.90
15133;DHT22;7667;51.232;17.110;2023-03-22T08:20:34;12.80;99.90
15133;DHT22;7667;51.232;17.110;2023-03-22T08:23:04;12.80;99.90
15133;DHT22;7667;51.232;17.110;2023-03-22T08:25:34;12.90;99.90
15133;DHT22;7667;51.232;17.110;2023-03-22T08:28:03;13.10;99.90
15133;DHT22;7667;51.232;17.110;2023-03-22T08:30:30;13.00;99.90
15133;DHT22;7667;51.232;17.110;2023-03-22T08:32:59;13.00;99.90
15133;DHT22;7667;51.232;17.110;2023-03-22T08:35:27;12.90;99.90
15133;DHT22;7667;51.232;17.110;2023-03-22T08:37:55;12.90;99.90
15133;DHT22;7667;51.232;17.110;2023-03-22T08:40:23;13.20;99.90
15133;DHT22;7667;51.232;17.110;2023-03-22T08:42:50;13.40;99.90
15133;DHT22;7667;51.232;17.110;2023-03-22T08:45:18;13.60;99.90
15133;DHT22;7667;51.232;17.110;2023-03-22T08:47:45;13.60;99.90
15133;DHT22;7667;51.232;17.110;2023-03-22T08:50:13;13.50;99.90
15133;DHT22;7667;51.232;17.110;2023-03-22T08:52:40;13.10;99.90
15133;DHT22;7667;51.232;17.110;2023-03-22T08:55:08;13.00;99.90
15133;DHT22;7667;51.232;17.110;2023-03-22T08:57:36;13.10;99.90
15133;DHT22;7667;51.232;17.110;2023-03-22T09:00:05;13.20;99.90
15133;DHT22;7667;51.232;17.110;2023-03-22T09:02:33;13.30;99.90
15133;DHT22;7667;51.232;17.110;2023-03-22T09:05:01;13.20;99.90
15133;DHT22;7667;51.232;17.110;2023-03-22T09:07:28;13.10;99.90
15133;DHT22;7667;51.232;17.110;2023-03-22T09:09:56;13.00;99.90
15133;DHT22;7667;51.232;17.110;2023-03-22T09:12:24;13.10;99.90
15133;DHT22;7667;51.232;17.110;2023-03-22T09:14:52;13.30;99.90
15133;DHT22;7667;51.232;17.110;2023-03-22T09:17:22;13.40;99.90
15133;DHT22;7667;51.232;17.110;2023-03-22T09:19:50;13.40;99.90
15133;DHT22;7667;51.232;17.110;2023-03-22T09:22:35;13.60;99.90
15133;DHT22;7667;51.232;17.110;2023-03-22T09:25:03;13.80;99.90
15133;DHT22;7667;51.232;17.110;2023-03-22T09:27:32;13.90;99.90
15133;DHT22;7667;51.232;17.110;2023-03-22T09:30:00;13.90;99.90
15133;DHT22;7667;51.232;17.110;2023-03-22T09:32:27;14.10;99.90
15133;DHT22;7667;51.232;17.110;2023-03-22T09:34:55;14.20;99.90
15133;DHT22;7667;51.232;17.110;2023-03-22T09:37:22;14.40;99.90
15133;DHT22;7667;51.232;17.110;2023-03-22T09:39:56;14.60;99.90
15133;DHT22;7667;51.232;17.110;2023-03-22T09:42:47;14.70;99.90
15133;DHT22;7667;51.232;17.110;2023-03-22T09:45:22;14.10;99.90
15133;DHT22;7667;51.232;17.110;2023-03-22T09:47:59;14.10;99.90
15133;DHT22;7667;51.232;17.110;2023-03-22T09:50:31;14.40;99.90
15133;DHT22;7667;51.232;17.110;2023-03-22T09:52:59;14.30;99.90
15133;DHT22;7667;51.232;17.110;2023-03-22T09:55:46;14.20;99.90
15133;DHT22;7667;51.232;17.110;2023-03-22T09:58:37;14.30;99.90
15133;DHT22;7667;51.232;17.110;2023-03-22T10:06:38;14.10;99.90
15133;DHT22;7667;51.232;17.110;2023-03-22T10:12:10;14.30;99.90
15133;DHT22;7667;51.232;17.110;2023-03-22T10:14:49;14.50;99.90
15133;DHT22;7667;51.232;17.110;2023-03-22T10:17:26;14.70;99.90
15133;DHT22;7667;51.232;17.110;2023-03-22T10:22:39;15.50;99.90
15133;DHT22;7667;51.232;17.110;2023-03-22T10:25:08;15.70;99.90
15133;DHT22;7667;51.232;17.110;2023-03-22T10:27:42;15.40;99.90
15133;DHT22;7667;51.232;17.110;2023-03-22T10:30:24;15.00;99.90
15133;DHT22;7667;51.232;17.110;2023-03-22T10:33:00;15.00;99.90
15133;DHT22;7667;51.232;17.110;2023-03-22T10:35:30;15.00;99.90
15133;DHT22;7667;51.232;17.110;2023-03-22T10:38:01;15.40;99.90
15133;DHT22;7667;51.232;17.110;2023-03-22T10:40:32;15.20;99.90
15133;DHT22;7667;51.232;17.110;2023-03-22T10:43:20;15.20;99.90
15133;DHT22;7667;51.232;17.110;2023-03-22T10:46:04;15.10;99.90
15133;DHT22;7667;51.232;17.110;2023-03-22T10:48:38;15.30;99.90
15133;DHT22;7667;51.232;17.110;2023-03-22T10:54:14;15.10;99.90
15133;DHT22;7667;51.232;17.110;2023-03-22T10:56:43;14.90;99.90
15133;DHT22;7667;51.232;17.110;2023-03-22T11:00:05;15.40;99.90
15133;DHT22;7667;51.232;17.110;2023-03-22T11:02:30;15.90;99.90
15133;DHT22;7667;51.232;17.110;2023-03-22T11:05:01;15.90;99.90
15133;DHT22;7667;51.232;17.110;2023-03-22T11:07:43;16.00;99.90
15133;DHT22;7667;51.232;17.110;2023-03-22T11:10:18;16.50;99.90
15133;DHT22;7667;51.232;17.110;2023-03-22T11:13:11;16.20;99.90
15133;DHT22;7667;51.232;17.110;2023-03-22T11:15:48;16.40;99.90
15133;DHT22;7667;51.232;17.110;2023-03-22T11:18:21;16.20;99.90
15133;DHT22;7667;51.232;17.110;2023-03-22T11:20:57;16.40;99.90
15133;DHT22;7667;51.232;17.110;2023-03-22T11:23:32;16.30;99.90
15133;DHT22;7667;51.232;17.110;2023-03-22T11:26:10;16.60;99.90
15133;DHT22;7667;51.232;17.110;2023-03-22T11:28:48;16.40;99.90
15133;DHT22;7667;51.232;17.110;2023-03-22T11:31:18;16.80;99.90
15133;DHT22;7667;51.232;17.110;2023-03-22T11:34:00;17.00;99.90
15133;DHT22;7667;51.232;17.110;2023-03-22T11:36:28;17.00;99.90
15133;DHT22;7667;51.232;17.110;2023-03-22T11:39:01;17.10;99.90
15133;DHT22;7667;51.232;17.110;2023-03-22T11:41:37;16.50;99.90
15133;DHT22;7667;51.232;17.110;2023-03-22T11:44:12;16.60;99.90
15133;DHT22;7667;51.232;17.110;2023-03-22T11:46:54;16.40;99.90
15133;DHT22;7667;51.232;17.110;2023-03-22T11:49:26;16.40;99.90
15133;DHT22;7667;51.232;17.110;2023-03-22T11:52:21;16.80;99.90
15133;DHT22;7667;51.232;17.110;2023-03-22T11:54:51;17.30;99.90
15133;DHT22;7667;51.232;17.110;2023-03-22T11:57:23;17.70;99.90
15133;DHT22;7667;51.232;17.110;2023-03-22T12:00:15;17.60;99.90
15133;DHT22;7667;51.232;17.110;2023-03-22T12:03:08;17.50;99.90
15133;DHT22;7667;51.232;17.110;2023-03-22T12:05:42;16.90;99.90
15133;DHT22;7667;51.232;17.110;2023-03-22T12:11:36;16.50;99.90
15133;DHT22;7667;51.232;17.110;2023-03-22T12:14:28;17.00;99.90
15133;DHT22;7667;51.232;17.110;2023-03-22T12:17:09;17.00;99.90
15133;DHT22;7667;51.232;17.110;2023-03-22T12:20:02;16.30;99.90
15133;DHT22;7667;51.232;17.110;2023-03-22T12:22:42;16.50;99.90
15133;DHT22;7667;51.232;17.110;2023-03-22T12:25:20;16.80;99.90
15133;DHT22;7667;51.232;17.110;2023-03-22T12:28:14;17.00;99.90
15133;DHT22;7667;51.232;17.110;2023-03-22T12:30:55;17.60;99.90
15133;DHT22;7667;51.232;17.110;2023-03-22T12:33:44;17.40;99.90
15133;DHT22;7667;51.232;17.110;2023-03-22T12:36:47;17.40;99.90
15133;DHT22;7667;51.232;17.110;2023-03-22T12:45:54;17.20;99.90
15133;DHT22;7667;51.232;17.110;2023-03-22T12:48:38;17.60;99.90
15133;DHT22;7667;51.232;17.110;2023-03-22T12:51:13;18.00;99.90
15133;DHT22;7667;51.232;17.110;2023-03-22T12:53:45;18.60;99.90
15133;DHT22;7667;51.232;17.110;2023-03-22T12:56:39;19.20;99.90
15133;DHT22;7667;51.232;17.110;2023-03-22T12:59:22;18.50;99.90
15133;DHT22;7667;51.232;17.110;2023-03-22T13:02:13;18.40;99.90
15133;DHT22;7667;51.232;17.110;2023-03-22T13:05:05;19.10;99.90
15133;DHT22;7667;51.232;17.110;2023-03-22T13:07:48;19.30;99.90
15133;DHT22;7667;51.232;17.110;2023-03-22T13:21:19;18.10;99.90
15133;DHT22;7667;51.232;17.110;2023-03-22T13:23:59;17.00;99.90
15133;DHT22;7667;51.232;17.110;2023-03-22T13:26:51;17.00;99.90
15133;DHT22;7667;51.232;17.110;2023-03-22T13:29:22;17.20;99.90
15133;DHT22;7667;51.232;17.110;2023-03-22T13:32:21;16.80;99.90
15133;DHT22;7667;51.232;17.110;2023-03-22T13:34:56;17.00;99.90
15133;DHT22;7667;51.232;17.110;2023-03-22T13:39:57;16.80;99.90
15133;DHT22;7667;51.232;17.110;2023-03-22T13:42:35;17.00;99.90
15133;DHT22;7667;51.232;17.110;2023-03-22T13:45:26;17.30;99.90
15133;DHT22;7667;51.232;17.110;2023-03-22T13:50:51;17.60;99.90
15133;DHT22;7667;51.232;17.110;2023-03-22T13:53:26;17.70;99.90
15133;DHT22;7667;51.232;17.110;2023-03-22T13:56:04;17.60;99.90
15133;DHT22;7667;51.232;17.110;2023-03-22T13:58:52;17.80;99.90
15133;DHT22;7667;51.232;17.110;2023-03-22T14:01:32;17.80;99.90
15133;DHT22;7667;51.232;17.110;2023-03-22T14:04:08;17.30;99.90
15133;DHT22;7667;51.232;17.110;2023-03-22T14:07:03;17.50;99.90
15133;DHT22;7667;51.232;17.110;2023-03-22T14:09:49;17.70;99.90
15133;DHT22;7667;51.232;17.110;2023-03-22T14:12:23;17.90;99.90
15133;DHT22;7667;51.232;17.110;2023-03-22T14:14:59;18.40;99.90
15133;DHT22;7667;51.232;17.110;2023-03-22T14:17:38;19.00;99.90
15133;DHT22;7667;51.232;17.110;2023-03-22T14:20:14;18.90;99.90
15133;DHT22;7667;51.232;17.110;2023-03-22T14:23:32;18.90;99.90
15133;DHT22;7667;51.232;17.110;2023-03-22T14:25:40;18.50;99.90
15133;DHT22;7667;51.232;17.110;2023-03-22T14:28:07;17.90;99.90
15133;DHT22;7667;51.232;17.110;2023-03-22T14:30:35;17.70;99.90
15133;DHT22;7667;51.232;17.110;2023-03-22T14:33:11;17.60;99.90
15133;DHT22;7667;51.232;17.110;2023-03-22T14:36:05;17.50;99.90
15133;DHT22;7667;51.232;17.110;2023-03-22T14:38:40;17.20;99.90
15133;DHT22;7667;51.232;17.110;2023-03-22T14:41:22;17.60;99.90
15133;DHT22;7667;51.232;17.110;2023-03-22T14:44:00;18.80;99.90
15133;DHT22;7667;51.232;17.110;2023-03-22T14:46:33;19.90;99.90
15133;DHT22;7667;51.232;17.110;2023-03-22T14:49:02;20.40;96.80
15133;DHT22;7667;51.232;17.110;2023-03-22T14:51:33;20.80;94.50
15133;DHT22;7667;51.232;17.110;2023-03-22T14:54:28;21.40;94.10
15133;DHT22;7667;51.232;17.110;2023-03-22T14:56:59;20.00;93.70
15133;DHT22;7667;51.232;17.110;2023-03-22T14:59:26;19.30;94.80
15133;DHT22;7667;51.232;17.110;2023-03-22T15:02:19;19.10;95.40
15133;DHT22;7667;51.232;17.110;2023-03-22T15:04:50;19.40;94.40
15133;DHT22;7667;51.232;17.110;2023-03-22T15:07:18;19.80;95.70
15133;DHT22;7667;51.232;17.110;2023-03-22T15:09:45;20.40;95.10
15133;DHT22;7667;51.232;17.110;2023-03-22T15:12:13;22.30;91.00
15133;DHT22;7667;51.232;17.110;2023-03-22T15:14:41;23.10;87.20
15133;DHT22;7667;51.232;17.110;2023-03-22T15:17:12;23.20;82.90
15133;DHT22;7667;51.232;17.110;2023-03-22T15:19:49;22.50;82.10
15133;DHT22;7667;51.232;17.110;2023-03-22T15:22:18;21.40;85.50
15133;DHT22;7667;51.232;17.110;2023-03-22T15:24:57;20.70;87.80
15133;DHT22;7667;51.232;17.110;2023-03-22T15:27:28;20.40;90.40
15133;DHT22;7667;51.232;17.110;2023-03-22T15:29:57;20.90;89.90
15133;DHT22;7667;51.232;17.110;2023-03-22T15:32:25;21.10;87.00
15133;DHT22;7667;51.232;17.110;2023-03-22T15:34:52;20.40;87.50
15133;DHT22;7667;51.232;17.110;2023-03-22T15:37:29;19.80;90.10
15133;DHT22;7667;51.232;17.110;2023-03-22T15:39:59;18.90;90.80
15133;DHT22;7667;51.232;17.110;2023-03-22T15:42:35;18.20;92.60
15133;DHT22;7667;51.232;17.110;2023-03-22T15:45:19;18.40;93.50
15133;DHT22;7667;51.232;17.110;2023-03-22T15:47:53;18.20;93.20
15133;DHT22;7667;51.232;17.110;2023-03-22T15:50:28;17.90;94.10
15133;DHT22;7667;51.232;17.110;2023-03-22T15:52:56;18.10;94.50
15133;DHT22;7667;51.232;17.110;2023-03-22T15:55:35;18.70;93.70
15133;DHT22;7667;51.232;17.110;2023-03-22T15:58:14;19.40;92.80
15133;DHT22;7667;51.232;17.110;2023-03-22T16:01:13;19.70;91.50
15133;DHT22;7667;51.232;17.110;2023-03-22T16:06:28;19.60;92.40
15133;DHT22;7667;51.232;17.110;2023-03-22T16:08:55;19.30;92.20
15133;DHT22;7667;51.232;17.110;2023-03-22T16:11:26;18.60;93.40
15133;DHT22;7667;51.232;17.110;2023-03-22T16:13:54;17.90;94.30
15133;DHT22;7667;51.232;17.110;2023-03-22T16:16:24;17.40;94.80
15133;DHT22;7667;51.232;17.110;2023-03-22T16:18:50;16.80;97.30
15133;DHT22;7667;51.232;17.110;2023-03-22T16:21:19;16.70;97.40
15133;DHT22;7667;51.232;17.110;2023-03-22T16:23:59;16.70;97.60
15133;DHT22;7667;51.232;17.110;2023-03-22T16:26:27;16.90;97.80
15133;DHT22;7667;51.232;17.110;2023-03-22T16:28:54;17.30;97.60
15133;DHT22;7667;51.232;17.110;2023-03-22T16:31:21;17.10;98.20
15133;DHT22;7667;51.232;17.110;2023-03-22T16:33:49;16.80;99.20
15133;DHT22;7667;51.232;17.110;2023-03-22T16:36:17;16.80;99.90
15133;DHT22;7667;51.232;17.110;2023-03-22T16:38:45;16.70;99.90
15133;DHT22;7667;51.232;17.110;2023-03-22T16:41:38;16.70;99.90
15133;DHT22;7667;51.232;17.110;2023-03-22T16:44:05;16.60;99.90
15133;DHT22;7667;51.232;17.110;2023-03-22T16:46:31;16.60;99.90
15133;DHT22;7667;51.232;17.110;2023-03-22T16:49:00;16.30;99.90
15133;DHT22;7667;51.232;17.110;2023-03-22T16:51:28;16.10;99.90
15133;DHT22;7667;51.232;17.110;2023-03-22T16:53:54;15.90;99.90
15133;DHT22;7667;51.232;17.110;2023-03-22T16:56:23;15.70;99.90
15133;DHT22;7667;51.232;17.110;2023-03-22T16:58:55;15.40;99.90
15133;DHT22;7667;51.232;17.110;2023-03-22T17:01:22;15.10;99.90
15133;DHT22;7667;51.232;17.110;2023-03-22T17:03:50;14.90;99.90
15133;DHT22;7667;51.232;17.110;2023-03-22T17:06:20;14.70;99.90
15133;DHT22;7667;51.232;17.110;2023-03-22T17:08:49;14.50;99.90
15133;DHT22;7667;51.232;17.110;2023-03-22T17:11:26;14.30;99.90
15133;DHT22;7667;51.232;17.110;2023-03-22T17:13:55;14.00;99.90
15133;DHT22;7667;51.232;17.110;2023-03-22T17:16:27;13.90;99.90
15133;DHT22;7667;51.232;17.110;2023-03-22T17:18:56;13.80;99.90
15133;DHT22;7667;51.232;17.110;2023-03-22T17:21:22;13.80;99.90
15133;DHT22;7667;51.232;17.110;2023-03-22T17:23:49;13.70;99.90
15133;DHT22;7667;51.232;17.110;2023-03-22T17:26:16;13.40;99.90
15133;DHT22;7667;51.232;17.110;2023-03-22T17:28:43;13.20;99.90
15133;DHT22;7667;51.232;17.110;2023-03-22T17:31:12;13.00;99.90
15133;DHT22;7667;51.232;17.110;2023-03-22T17:33:40;12.80;99.90
15133;DHT22;7667;51.232;17.110;2023-03-22T17:36:09;12.60;99.90
15133;DHT22;7667;51.232;17.110;2023-03-22T17:38:38;12.50;99.90